Terminal Aerodrome Forecast
Issued by NWS

Home | Current Version | Previous Version | Text Only | Print | Product List | Glossary On
Versions: 1 2 3 4 5 6 7 8 9 10 11 12 13 14 15 16 17 18 19
042
FTUS41 KBGM 241744
TAFELM
TAF
KELM 241744Z 2418/2518 32005KT P6SM SKC
     FM250300 00000KT P6SM SKC
      TEMPO 2505/2508 2SM BR
     FM250800 00000KT 1SM BR SCT004
      TEMPO 2509/2512 1/2SM FG OVC003
     FM251400 VRB03KT P6SM SKC=

USA.gov is the U.S. government's official web portal to all federal, state and local government web resources and services.